sensor_id;sensor_type;location;lat;lon;timestamp;pressure;altitude;pressure_sealevel;temperature;humidity
85928;BME280;76685;49.582;18.342;2024-03-06T00:00:57;97210.92;;;5.42;85.66
85928;BME280;76685;49.582;18.342;2024-03-06T00:03:44;97209.20;;;5.37;85.63
85928;BME280;76685;49.582;18.342;2024-03-06T00:06:11;97211.54;;;5.39;85.59
85928;BME280;76685;49.582;18.342;2024-03-06T00:08:38;97211.98;;;5.38;85.54
85928;BME280;76685;49.582;18.342;2024-03-06T00:11:05;97214.70;;;5.36;85.63
85928;BME280;76685;49.582;18.342;2024-03-06T00:13:32;97215.23;;;5.33;85.79
85928;BME280;76685;49.582;18.342;2024-03-06T00:15:59;97217.69;;;5.30;85.88
85928;BME280;76685;49.582;18.342;2024-03-06T00:18:26;97223.59;;;5.28;85.78
85928;BME280;76685;49.582;18.342;2024-03-06T00:20:53;97228.90;;;5.29;85.75
85928;BME280;76685;49.582;18.342;2024-03-06T00:23:20;97228.23;;;5.25;85.85
85928;BME280;76685;49.582;18.342;2024-03-06T00:25:47;97227.69;;;5.19;85.94
85928;BME280;76685;49.582;18.342;2024-03-06T00:28:14;97225.71;;;5.17;85.85
85928;BME280;76685;49.582;18.342;2024-03-06T00:30:41;97223.14;;;5.16;86.05
85928;BME280;76685;49.582;18.342;2024-03-06T00:33:09;97226.73;;;5.15;85.99
85928;BME280;76685;49.582;18.342;2024-03-06T00:35:36;97223.67;;;5.13;86.11
85928;BME280;76685;49.582;18.342;2024-03-06T00:38:03;97225.79;;;5.11;86.05
85928;BME280;76685;49.582;18.342;2024-03-06T00:40:30;97224.66;;;5.07;86.00
85928;BME280;76685;49.582;18.342;2024-03-06T00:42:57;97227.59;;;5.04;86.01
85928;BME280;76685;49.582;18.342;2024-03-06T00:45:25;97226.00;;;5.02;86.08
85928;BME280;76685;49.582;18.342;2024-03-06T00:48:11;97228.58;;;4.98;86.18
85928;BME280;76685;49.582;18.342;2024-03-06T00:50:38;97226.78;;;4.91;86.25
85928;BME280;76685;49.582;18.342;2024-03-06T00:53:06;97228.51;;;4.84;86.20
85928;BME280;76685;49.582;18.342;2024-03-06T00:55:33;97231.81;;;4.77;86.22
85928;BME280;76685;49.582;18.342;2024-03-06T00:58:00;97231.02;;;4.73;86.29
85928;BME280;76685;49.582;18.342;2024-03-06T01:00:30;97234.25;;;4.69;86.50
85928;BME280;76685;49.582;18.342;2024-03-06T01:02:57;97233.15;;;4.64;86.54
85928;BME280;76685;49.582;18.342;2024-03-06T01:05:24;97234.27;;;4.65;86.98
85928;BME280;76685;49.582;18.342;2024-03-06T01:07:51;97232.34;;;4.69;87.12
85928;BME280;76685;49.582;18.342;2024-03-06T01:10:18;97233.48;;;4.72;87.30
85928;BME280;76685;49.582;18.342;2024-03-06T01:12:45;97230.92;;;4.74;87.34
85928;BME280;76685;49.582;18.342;2024-03-06T01:15:12;97233.23;;;4.76;87.45
85928;BME280;76685;49.582;18.342;2024-03-06T01:17:40;97232.11;;;4.78;87.58
85928;BME280;76685;49.582;18.342;2024-03-06T01:20:07;97236.65;;;4.83;87.80
85928;BME280;76685;49.582;18.342;2024-03-06T01:22:35;97234.00;;;4.87;87.78
85928;BME280;76685;49.582;18.342;2024-03-06T01:25:02;97234.66;;;4.91;87.60
85928;BME280;76685;49.582;18.342;2024-03-06T01:27:30;97235.84;;;4.93;87.56
85928;BME280;76685;49.582;18.342;2024-03-06T01:29:58;97237.77;;;4.95;87.62
85928;BME280;76685;49.582;18.342;2024-03-06T01:32:25;97241.83;;;4.98;87.52
85928;BME280;76685;49.582;18.342;2024-03-06T01:34:51;97241.55;;;5.02;87.47
85928;BME280;76685;49.582;18.342;2024-03-06T01:37:18;97243.45;;;5.07;87.30
85928;BME280;76685;49.582;18.342;2024-03-06T01:39:45;97249.77;;;5.12;87.33
85928;BME280;76685;49.582;18.342;2024-03-06T01:42:12;97251.58;;;5.15;87.28
85928;BME280;76685;49.582;18.342;2024-03-06T01:44:39;97253.68;;;5.17;87.15
85928;BME280;76685;49.582;18.342;2024-03-06T01:47:06;97255.55;;;5.17;87.29
85928;BME280;76685;49.582;18.342;2024-03-06T01:49:33;97254.23;;;5.12;87.10
85928;BME280;76685;49.582;18.342;2024-03-06T01:52:01;97251.15;;;5.10;87.20
85928;BME280;76685;49.582;18.342;2024-03-06T01:54:30;97253.02;;;5.08;87.20
85928;BME280;76685;49.582;18.342;2024-03-06T01:56:59;97252.92;;;5.05;87.14
85928;BME280;76685;49.582;18.342;2024-03-06T01:59:29;97256.84;;;5.03;87.20
85928;BME280;76685;49.582;18.342;2024-03-06T02:01:56;97257.44;;;5.03;87.54
85928;BME280;76685;49.582;18.342;2024-03-06T02:04:24;97256.88;;;5.03;87.56
85928;BME280;76685;49.582;18.342;2024-03-06T02:06:54;97259.16;;;5.02;87.56
85928;BME280;76685;49.582;18.342;2024-03-06T02:09:23;97256.66;;;5.00;87.21
85928;BME280;76685;49.582;18.342;2024-03-06T02:11:50;97260.92;;;4.97;87.34
85928;BME280;76685;49.582;18.342;2024-03-06T02:14:17;97259.58;;;4.94;87.54
85928;BME280;76685;49.582;18.342;2024-03-06T02:16:44;97263.03;;;4.92;87.44
85928;BME280;76685;49.582;18.342;2024-03-06T02:19:11;97260.98;;;4.91;87.40
85928;BME280;76685;49.582;18.342;2024-03-06T02:21:38;97261.16;;;4.92;87.54
85928;BME280;76685;49.582;18.342;2024-03-06T02:24:05;97257.98;;;4.96;87.46
85928;BME280;76685;49.582;18.342;2024-03-06T02:26:32;97261.92;;;4.99;87.38
85928;BME280;76685;49.582;18.342;2024-03-06T02:28:59;97265.94;;;5.00;87.34
85928;BME280;76685;49.582;18.342;2024-03-06T02:31:26;97264.04;;;5.02;87.28
85928;BME280;76685;49.582;18.342;2024-03-06T02:33:54;97262.22;;;5.02;87.20
85928;BME280;76685;49.582;18.342;2024-03-06T02:36:21;97264.41;;;4.99;87.11
85928;BME280;76685;49.582;18.342;2024-03-06T02:38:48;97264.96;;;4.96;87.20
85928;BME280;76685;49.582;18.342;2024-03-06T02:41:15;97266.59;;;4.94;87.17
85928;BME280;76685;49.582;18.342;2024-03-06T02:43:42;97264.61;;;4.92;87.21
85928;BME280;76685;49.582;18.342;2024-03-06T02:46:09;97265.66;;;4.92;87.33
85928;BME280;76685;49.582;18.342;2024-03-06T02:48:36;97266.46;;;4.89;87.14
85928;BME280;76685;49.582;18.342;2024-03-06T02:51:03;97271.95;;;4.88;87.06
85928;BME280;76685;49.582;18.342;2024-03-06T02:53:30;97272.98;;;4.90;87.02
85928;BME280;76685;49.582;18.342;2024-03-06T02:55:58;97271.80;;;4.90;86.91
85928;BME280;76685;49.582;18.342;2024-03-06T02:58:25;97272.09;;;4.90;86.87
85928;BME280;76685;49.582;18.342;2024-03-06T03:00:52;97272.28;;;4.90;86.74
85928;BME280;76685;49.582;18.342;2024-03-06T03:03:19;97269.25;;;4.85;86.66
85928;BME280;76685;49.582;18.342;2024-03-06T03:05:46;97271.45;;;4.78;86.57
85928;BME280;76685;49.582;18.342;2024-03-06T03:08:13;97272.48;;;4.73;86.46
85928;BME280;76685;49.582;18.342;2024-03-06T03:10:40;97273.70;;;4.68;86.54
85928;BME280;76685;49.582;18.342;2024-03-06T03:13:07;97278.06;;;4.66;86.43
85928;BME280;76685;49.582;18.342;2024-03-06T03:15:34;97272.34;;;4.64;86.67
85928;BME280;76685;49.582;18.342;2024-03-06T03:18:01;97276.35;;;4.59;86.38
85928;BME280;76685;49.582;18.342;2024-03-06T03:20:28;97276.20;;;4.52;86.26
85928;BME280;76685;49.582;18.342;2024-03-06T03:22:55;97276.55;;;4.43;86.22
85928;BME280;76685;49.582;18.342;2024-03-06T03:25:22;97277.69;;;4.35;86.38
85928;BME280;76685;49.582;18.342;2024-03-06T03:27:49;97278.91;;;4.27;86.47
85928;BME280;76685;49.582;18.342;2024-03-06T03:30:17;97275.98;;;4.20;86.69
85928;BME280;76685;49.582;18.342;2024-03-06T03:32:50;97275.46;;;4.14;87.07
85928;BME280;76685;49.582;18.342;2024-03-06T03:35:17;97278.38;;;4.12;87.01
85928;BME280;76685;49.582;18.342;2024-03-06T03:37:47;97278.46;;;4.09;87.03
85928;BME280;76685;49.582;18.342;2024-03-06T03:40:14;97283.77;;;4.08;87.14
85928;BME280;76685;49.582;18.342;2024-03-06T03:42:43;97284.81;;;4.06;86.99
85928;BME280;76685;49.582;18.342;2024-03-06T03:45:10;97288.77;;;4.02;87.24
85928;BME280;76685;49.582;18.342;2024-03-06T03:47:37;97287.08;;;3.99;87.21
85928;BME280;76685;49.582;18.342;2024-03-06T03:50:04;97286.63;;;3.95;87.37
85928;BME280;76685;49.582;18.342;2024-03-06T03:52:32;97287.51;;;3.89;87.26
85928;BME280;76685;49.582;18.342;2024-03-06T03:54:59;97287.98;;;3.84;87.50
85928;BME280;76685;49.582;18.342;2024-03-06T03:57:26;97289.32;;;3.79;87.21
85928;BME280;76685;49.582;18.342;2024-03-06T03:59:54;97288.27;;;3.77;87.45
85928;BME280;76685;49.582;18.342;2024-03-06T04:02:21;97287.04;;;3.75;87.46
85928;BME280;76685;49.582;18.342;2024-03-06T04:04:48;97289.27;;;3.72;87.50
85928;BME280;76685;49.582;18.342;2024-03-06T04:07:15;97292.33;;;3.68;87.59
85928;BME280;76685;49.582;18.342;2024-03-06T04:09:43;97296.67;;;3.65;87.41
85928;BME280;76685;49.582;18.342;2024-03-06T04:12:10;97295.66;;;3.64;87.66
85928;BME280;76685;49.582;18.342;2024-03-06T04:14:37;97295.61;;;3.61;88.02
85928;BME280;76685;49.582;18.342;2024-03-06T04:17:04;97298.02;;;3.58;87.75
85928;BME280;76685;49.582;18.342;2024-03-06T04:19:31;97302.02;;;3.56;87.68
85928;BME280;76685;49.582;18.342;2024-03-06T04:21:59;97307.84;;;3.53;87.78
85928;BME280;76685;49.582;18.342;2024-03-06T04:24:26;97311.31;;;3.50;87.42
85928;BME280;76685;49.582;18.342;2024-03-06T04:26:53;97309.42;;;3.45;87.68
85928;BME280;76685;49.582;18.342;2024-03-06T04:29:20;97308.83;;;3.42;87.84
85928;BME280;76685;49.582;18.342;2024-03-06T04:31:47;97313.79;;;3.40;87.87
85928;BME280;76685;49.582;18.342;2024-03-06T04:34:14;97315.86;;;3.39;87.67
85928;BME280;76685;49.582;18.342;2024-03-06T04:36:41;97321.28;;;3.36;87.68
85928;BME280;76685;49.582;18.342;2024-03-06T04:39:08;97323.03;;;3.35;88.03
85928;BME280;76685;49.582;18.342;2024-03-06T04:41:36;97322.87;;;3.35;88.06
85928;BME280;76685;49.582;18.342;2024-03-06T04:44:04;97325.00;;;3.35;88.21
85928;BME280;76685;49.582;18.342;2024-03-06T04:46:30;97326.83;;;3.37;88.15
85928;BME280;76685;49.582;18.342;2024-03-06T04:48:57;97332.92;;;3.40;88.08
85928;BME280;76685;49.582;18.342;2024-03-06T04:51:24;97331.71;;;3.42;88.02
85928;BME280;76685;49.582;18.342;2024-03-06T04:53:51;97333.76;;;3.43;88.09
85928;BME280;76685;49.582;18.342;2024-03-06T04:56:19;97336.95;;;3.41;87.91
85928;BME280;76685;49.582;18.342;2024-03-06T04:58:47;97338.09;;;3.34;87.94
85928;BME280;76685;49.582;18.342;2024-03-06T05:01:14;97340.80;;;3.30;87.85
85928;BME280;76685;49.582;18.342;2024-03-06T05:03:41;97343.55;;;3.27;87.94
85928;BME280;76685;49.582;18.342;2024-03-06T05:06:09;97347.31;;;3.27;87.94
85928;BME280;76685;49.582;18.342;2024-03-06T05:08:36;97345.02;;;3.22;87.88
85928;BME280;76685;49.582;18.342;2024-03-06T05:11:04;97347.73;;;3.18;87.93
85928;BME280;76685;49.582;18.342;2024-03-06T05:13:31;97348.66;;;3.16;87.57
85928;BME280;76685;49.582;18.342;2024-03-06T05:15:58;97353.73;;;3.13;87.62
85928;BME280;76685;49.582;18.342;2024-03-06T05:18:25;97353.73;;;3.11;87.60
85928;BME280;76685;49.582;18.342;2024-03-06T05:20:52;97353.40;;;3.09;87.55
85928;BME280;76685;49.582;18.342;2024-03-06T05:23:19;97355.59;;;3.06;87.69
85928;BME280;76685;49.582;18.342;2024-03-06T05:25:46;97359.23;;;3.03;87.66
85928;BME280;76685;49.582;18.342;2024-03-06T05:28:13;97355.43;;;3.02;87.65
85928;BME280;76685;49.582;18.342;2024-03-06T05:30:40;97357.33;;;2.99;87.66
85928;BME280;76685;49.582;18.342;2024-03-06T05:33:07;97360.94;;;2.94;87.34
85928;BME280;76685;49.582;18.342;2024-03-06T05:35:34;97358.45;;;2.86;87.29
85928;BME280;76685;49.582;18.342;2024-03-06T05:38:01;97360.67;;;2.81;87.23
85928;BME280;76685;49.582;18.342;2024-03-06T05:40:29;97361.63;;;2.74;87.09
85928;BME280;76685;49.582;18.342;2024-03-06T05:43:01;97362.86;;;2.68;87.14
85928;BME280;76685;49.582;18.342;2024-03-06T05:45:28;97362.25;;;2.63;87.24
85928;BME280;76685;49.582;18.342;2024-03-06T05:47:55;97362.40;;;2.59;87.12
85928;BME280;76685;49.582;18.342;2024-03-06T05:50:22;97362.60;;;2.57;87.01
85928;BME280;76685;49.582;18.342;2024-03-06T05:52:50;97365.34;;;2.54;87.34
85928;BME280;76685;49.582;18.342;2024-03-06T05:55:17;97368.29;;;2.51;87.43
85928;BME280;76685;49.582;18.342;2024-03-06T05:57:44;97369.23;;;2.49;87.53
85928;BME280;76685;49.582;18.342;2024-03-06T06:00:14;97367.96;;;2.49;87.65
85928;BME280;76685;49.582;18.342;2024-03-06T06:02:41;97368.38;;;2.48;87.56
85928;BME280;76685;49.582;18.342;2024-03-06T06:05:09;97369.81;;;2.52;87.62
85928;BME280;76685;49.582;18.342;2024-03-06T06:07:36;97370.50;;;2.56;87.51
85928;BME280;76685;49.582;18.342;2024-03-06T06:10:05;97374.88;;;2.59;87.43
85928;BME280;76685;49.582;18.342;2024-03-06T06:12:35;97374.19;;;2.65;87.32
85928;BME280;76685;49.582;18.342;2024-03-06T06:15:02;97373.91;;;2.75;87.43
85928;BME280;76685;49.582;18.342;2024-03-06T06:17:31;97374.80;;;2.85;87.13
85928;BME280;76685;49.582;18.342;2024-03-06T06:19:58;97372.48;;;2.97;86.75
85928;BME280;76685;49.582;18.342;2024-03-06T06:22:28;97375.85;;;3.11;86.63
85928;BME280;76685;49.582;18.342;2024-03-06T06:24:55;97375.46;;;3.30;86.44
85928;BME280;76685;49.582;18.342;2024-03-06T06:27:23;97381.04;;;3.45;85.72
85928;BME280;76685;49.582;18.342;2024-03-06T06:29:52;97381.52;;;3.57;85.05
85928;BME280;76685;49.582;18.342;2024-03-06T06:32:21;97381.69;;;3.71;84.76
85928;BME280;76685;49.582;18.342;2024-03-06T06:34:48;97382.64;;;3.87;84.79
85928;BME280;76685;49.582;18.342;2024-03-06T06:37:15;97381.59;;;4.00;84.59
85928;BME280;76685;49.582;18.342;2024-03-06T06:39:43;97375.71;;;4.15;84.17
85928;BME280;76685;49.582;18.342;2024-03-06T06:42:09;97377.35;;;4.28;82.82
85928;BME280;76685;49.582;18.342;2024-03-06T06:44:37;97379.67;;;4.41;82.45
85928;BME280;76685;49.582;18.342;2024-03-06T06:47:04;97379.50;;;4.55;81.27
85928;BME280;76685;49.582;18.342;2024-03-06T06:49:31;97378.91;;;4.66;79.35
85928;BME280;76685;49.582;18.342;2024-03-06T06:51:59;97376.98;;;4.70;77.46
85928;BME280;76685;49.582;18.342;2024-03-06T06:54:29;97375.00;;;4.75;78.43
85928;BME280;76685;49.582;18.342;2024-03-06T06:56:56;97377.60;;;4.88;77.70
85928;BME280;76685;49.582;18.342;2024-03-06T06:59:23;97376.69;;;5.01;77.52
85928;BME280;76685;49.582;18.342;2024-03-06T07:01:51;97371.77;;;5.18;77.95
85928;BME280;76685;49.582;18.342;2024-03-06T07:04:18;97370.67;;;5.41;77.93
85928;BME280;76685;49.582;18.342;2024-03-06T07:06:46;97368.73;;;5.64;77.44
85928;BME280;76685;49.582;18.342;2024-03-06T07:09:13;97369.92;;;5.83;76.20
85928;BME280;76685;49.582;18.342;2024-03-06T07:11:44;97364.26;;;6.02;74.75
85928;BME280;76685;49.582;18.342;2024-03-06T07:14:14;97364.77;;;6.20;75.39
85928;BME280;76685;49.582;18.342;2024-03-06T07:16:42;97368.49;;;6.48;75.10
85928;BME280;76685;49.582;18.342;2024-03-06T07:19:10;97367.77;;;6.76;74.51
85928;BME280;76685;49.582;18.342;2024-03-06T07:21:37;97367.04;;;7.06;74.36
85928;BME280;76685;49.582;18.342;2024-03-06T07:24:04;97366.36;;;7.34;73.06
85928;BME280;76685;49.582;18.342;2024-03-06T07:26:32;97367.89;;;7.60;72.19
85928;BME280;76685;49.582;18.342;2024-03-06T07:28:59;97369.67;;;7.84;70.67
85928;BME280;76685;49.582;18.342;2024-03-06T07:31:29;97364.98;;;8.10;69.01
85928;BME280;76685;49.582;18.342;2024-03-06T07:33:56;97363.65;;;8.21;66.70
85928;BME280;76685;49.582;18.342;2024-03-06T07:36:23;97365.84;;;8.37;66.82
85928;BME280;76685;49.582;18.342;2024-03-06T07:38:50;97367.23;;;8.59;66.12
85928;BME280;76685;49.582;18.342;2024-03-06T07:41:17;97365.39;;;8.82;65.91
85928;BME280;76685;49.582;18.342;2024-03-06T07:43:44;97365.64;;;9.10;65.84
85928;BME280;76685;49.582;18.342;2024-03-06T07:46:11;97366.53;;;9.40;65.45
85928;BME280;76685;49.582;18.342;2024-03-06T07:48:42;97368.20;;;9.65;63.84
85928;BME280;76685;49.582;18.342;2024-03-06T07:51:11;97368.79;;;9.88;62.40
85928;BME280;76685;49.582;18.342;2024-03-06T07:53:38;97366.81;;;9.97;61.15
85928;BME280;76685;49.582;18.342;2024-03-06T07:56:04;97367.13;;;10.12;61.24
85928;BME280;76685;49.582;18.342;2024-03-06T07:58:30;97369.27;;;10.29;59.43
85928;BME280;76685;49.582;18.342;2024-03-06T08:00:57;97371.23;;;10.44;59.10
85928;BME280;76685;49.582;18.342;2024-03-06T08:03:23;97371.16;;;10.54;57.95
85928;BME280;76685;49.582;18.342;2024-03-06T08:05:51;97370.11;;;10.64;57.19
85928;BME280;76685;49.582;18.342;2024-03-06T08:08:18;97376.14;;;10.63;56.71
85928;BME280;76685;49.582;18.342;2024-03-06T08:10:44;97374.35;;;10.73;57.14
85928;BME280;76685;49.582;18.342;2024-03-06T08:13:13;97370.21;;;10.86;56.51
85928;BME280;76685;49.582;18.342;2024-03-06T08:15:40;97374.81;;;11.05;57.03
85928;BME280;76685;49.582;18.342;2024-03-06T08:18:06;97374.40;;;11.05;54.82
85928;BME280;76685;49.582;18.342;2024-03-06T08:20:32;97373.02;;;10.81;55.69
85928;BME280;76685;49.582;18.342;2024-03-06T08:22:58;97374.04;;;10.81;58.00
85928;BME280;76685;49.582;18.342;2024-03-06T08:25:24;97376.36;;;10.79;58.32
85928;BME280;76685;49.582;18.342;2024-03-06T08:27:50;97375.09;;;10.77;58.48
85928;BME280;76685;49.582;18.342;2024-03-06T08:30:16;97377.81;;;10.71;58.78
85928;BME280;76685;49.582;18.342;2024-03-06T08:32:43;97378.88;;;10.59;57.99
85928;BME280;76685;49.582;18.342;2024-03-06T08:35:12;97383.02;;;10.62;58.37
85928;BME280;76685;49.582;18.342;2024-03-06T08:37:42;97382.73;;;10.78;58.90
85928;BME280;76685;49.582;18.342;2024-03-06T08:40:09;97381.70;;;10.90;57.74
85928;BME280;76685;49.582;18.342;2024-03-06T08:42:41;97382.34;;;10.96;57.79
85928;BME280;76685;49.582;18.342;2024-03-06T08:45:08;97383.38;;;11.03;58.45
85928;BME280;76685;49.582;18.342;2024-03-06T08:47:34;97381.91;;;11.00;58.24
85928;BME280;76685;49.582;18.342;2024-03-06T08:50:01;97386.65;;;10.97;57.66
85928;BME280;76685;49.582;18.342;2024-03-06T08:52:31;97388.36;;;11.06;58.69
85928;BME280;76685;49.582;18.342;2024-03-06T08:54:58;97384.20;;;11.10;57.45
85928;BME280;76685;49.582;18.342;2024-03-06T08:57:24;97392.53;;;11.14;58.42
85928;BME280;76685;49.582;18.342;2024-03-06T08:59:52;97391.38;;;11.32;58.12
85928;BME280;76685;49.582;18.342;2024-03-06T09:02:19;97391.83;;;11.40;58.51
85928;BME280;76685;49.582;18.342;2024-03-06T09:04:46;97389.36;;;11.37;56.15
85928;BME280;76685;49.582;18.342;2024-03-06T09:07:13;97389.96;;;11.01;56.36
85928;BME280;76685;49.582;18.342;2024-03-06T09:09:40;97394.06;;;10.77;56.97
85928;BME280;76685;49.582;18.342;2024-03-06T09:12:08;97389.02;;;10.92;58.58
85928;BME280;76685;49.582;18.342;2024-03-06T09:14:39;97393.81;;;10.88;56.14
85928;BME280;76685;49.582;18.342;2024-03-06T09:17:07;97389.88;;;10.61;58.35
85928;BME280;76685;49.582;18.342;2024-03-06T09:19:36;97384.44;;;10.87;59.30
85928;BME280;76685;49.582;18.342;2024-03-06T09:22:02;97389.71;;;11.04;57.32
85928;BME280;76685;49.582;18.342;2024-03-06T09:24:30;97390.91;;;10.97;55.39
85928;BME280;76685;49.582;18.342;2024-03-06T09:26:56;97397.27;;;10.84;57.31
85928;BME280;76685;49.582;18.342;2024-03-06T09:29:23;97399.77;;;10.84;57.02
85928;BME280;76685;49.582;18.342;2024-03-06T09:31:49;97395.38;;;10.86;57.42
85928;BME280;76685;49.582;18.342;2024-03-06T09:34:15;97400.80;;;10.95;57.59
85928;BME280;76685;49.582;18.342;2024-03-06T09:36:46;97400.88;;;10.94;56.55
85928;BME280;76685;49.582;18.342;2024-03-06T09:39:17;97407.85;;;10.54;55.93
85928;BME280;76685;49.582;18.342;2024-03-06T09:41:44;97405.53;;;10.50;58.02
85928;BME280;76685;49.582;18.342;2024-03-06T09:44:10;97402.05;;;10.74;58.89
85928;BME280;76685;49.582;18.342;2024-03-06T09:46:37;97406.20;;;10.72;58.69
85928;BME280;76685;49.582;18.342;2024-03-06T09:49:04;97405.11;;;10.57;56.50
85928;BME280;76685;49.582;18.342;2024-03-06T09:51:31;97406.48;;;10.21;56.05
85928;BME280;76685;49.582;18.342;2024-03-06T09:53:58;97403.13;;;10.03;57.27
85928;BME280;76685;49.582;18.342;2024-03-06T09:56:24;97404.84;;;9.62;57.13
85928;BME280;76685;49.582;18.342;2024-03-06T09:58:50;97407.98;;;9.23;57.90
85928;BME280;76685;49.582;18.342;2024-03-06T10:01:21;97406.42;;;9.05;58.87
85928;BME280;76685;49.582;18.342;2024-03-06T10:03:49;97409.98;;;9.23;59.18
85928;BME280;76685;49.582;18.342;2024-03-06T10:06:16;97412.44;;;9.38;58.46
85928;BME280;76685;49.582;18.342;2024-03-06T10:08:42;97410.62;;;9.76;58.46
85928;BME280;76685;49.582;18.342;2024-03-06T10:11:12;97404.95;;;10.26;57.96
85928;BME280;76685;49.582;18.342;2024-03-06T10:13:38;97413.57;;;10.69;56.01
85928;BME280;76685;49.582;18.342;2024-03-06T10:16:05;97409.34;;;11.17;56.60
85928;BME280;76685;49.582;18.342;2024-03-06T10:18:37;97405.54;;;11.78;55.48
85928;BME280;76685;49.582;18.342;2024-03-06T10:21:06;97408.46;;;12.26;53.77
85928;BME280;76685;49.582;18.342;2024-03-06T10:23:34;97402.63;;;12.55;52.20
85928;BME280;76685;49.582;18.342;2024-03-06T10:26:00;97401.08;;;12.92;52.51
85928;BME280;76685;49.582;18.342;2024-03-06T10:28:26;97397.48;;;13.34;52.07
85928;BME280;76685;49.582;18.342;2024-03-06T10:31:03;97399.44;;;13.66;50.94
85928;BME280;76685;49.582;18.342;2024-03-06T10:33:31;97397.30;;;13.66;48.45
85928;BME280;76685;49.582;18.342;2024-03-06T10:35:57;97402.23;;;13.00;45.43
85928;BME280;76685;49.582;18.342;2024-03-06T10:38:25;97407.67;;;12.29;46.94
85928;BME280;76685;49.582;18.342;2024-03-06T10:40:55;97404.58;;;12.09;49.56
85928;BME280;76685;49.582;18.342;2024-03-06T10:43:23;97406.24;;;12.32;49.51
85928;BME280;76685;49.582;18.342;2024-03-06T10:45:51;97403.04;;;12.61;48.72
85928;BME280;76685;49.582;18.342;2024-03-06T10:48:23;97404.05;;;12.85;49.05
85928;BME280;76685;49.582;18.342;2024-03-06T10:50:50;97405.92;;;12.77;48.62
85928;BME280;76685;49.582;18.342;2024-03-06T10:53:17;97406.79;;;12.84;48.70
85928;BME280;76685;49.582;18.342;2024-03-06T10:55:44;97404.61;;;13.01;49.06
85928;BME280;76685;49.582;18.342;2024-03-06T10:58:11;97402.99;;;12.93;47.52
85928;BME280;76685;49.582;18.342;2024-03-06T11:00:42;97407.82;;;12.75;48.25
85928;BME280;76685;49.582;18.342;2024-03-06T11:03:12;97411.72;;;12.46;48.33
85928;BME280;76685;49.582;18.342;2024-03-06T11:05:43;97415.66;;;12.16;49.34
85928;BME280;76685;49.582;18.342;2024-03-06T11:08:11;97406.89;;;11.71;48.14
85928;BME280;76685;49.582;18.342;2024-03-06T11:10:40;97402.91;;;11.55;50.81
85928;BME280;76685;49.582;18.342;2024-03-06T11:13:23;97406.85;;;11.34;50.86
85928;BME280;76685;49.582;18.342;2024-03-06T11:15:50;97403.30;;;10.83;49.79
85928;BME280;76685;49.582;18.342;2024-03-06T11:26:35;97410.64;;;8.83;53.33
85928;BME280;76685;49.582;18.342;2024-03-06T11:29:02;97408.27;;;8.59;54.55
85928;BME280;76685;49.582;18.342;2024-03-06T11:31:28;97400.25;;;9.04;55.03
85928;BME280;76685;49.582;18.342;2024-03-06T11:33:56;97402.23;;;9.84;54.06
85928;BME280;76685;49.582;18.342;2024-03-06T11:36:27;97398.00;;;10.20;52.18
85928;BME280;76685;49.582;18.342;2024-03-06T11:39:02;97391.01;;;10.28;53.33
85928;BME280;76685;49.582;18.342;2024-03-06T11:44:14;97398.77;;;10.19;50.81
85928;BME280;76685;49.582;18.342;2024-03-06T11:46:58;97397.98;;;10.02;51.76
85928;BME280;76685;49.582;18.342;2024-03-06T11:49:27;97393.48;;;10.18;53.49
85928;BME280;76685;49.582;18.342;2024-03-06T11:52:01;97394.23;;;10.48;53.64
85928;BME280;76685;49.582;18.342;2024-03-06T11:54:30;97394.62;;;10.57;52.09
85928;BME280;76685;49.582;18.342;2024-03-06T11:56:58;97396.61;;;10.46;50.82
85928;BME280;76685;49.582;18.342;2024-03-06T11:59:32;97394.19;;;10.09;50.89
85928;BME280;76685;49.582;18.342;2024-03-06T12:02:00;97398.86;;;9.76;52.22
85928;BME280;76685;49.582;18.342;2024-03-06T12:04:29;97398.25;;;9.62;53.66
85928;BME280;76685;49.582;18.342;2024-03-06T12:06:59;97397.28;;;9.50;54.19
85928;BME280;76685;49.582;18.342;2024-03-06T12:09:28;97403.21;;;9.22;54.09
85928;BME280;76685;49.582;18.342;2024-03-06T12:11:55;97402.70;;;8.87;54.05
85928;BME280;76685;49.582;18.342;2024-03-06T12:14:22;97404.85;;;8.51;55.54
85928;BME280;76685;49.582;18.342;2024-03-06T12:16:59;97405.95;;;8.18;54.63
85928;BME280;76685;49.582;18.342;2024-03-06T12:19:31;97403.09;;;8.24;56.64
85928;BME280;76685;49.582;18.342;2024-03-06T12:22:01;97394.79;;;9.08;55.48
85928;BME280;76685;49.582;18.342;2024-03-06T12:24:30;97398.36;;;9.35;54.70
85928;BME280;76685;49.582;18.342;2024-03-06T12:27:01;97394.98;;;9.36;54.63
85928;BME280;76685;49.582;18.342;2024-03-06T12:29:30;97399.95;;;9.23;54.10
85928;BME280;76685;49.582;18.342;2024-03-06T12:31:59;97407.03;;;8.98;54.77
85928;BME280;76685;49.582;18.342;2024-03-06T12:34:25;97406.80;;;8.78;56.11
85928;BME280;76685;49.582;18.342;2024-03-06T12:36:52;97408.20;;;8.52;56.81
85928;BME280;76685;49.582;18.342;2024-03-06T12:39:18;97411.18;;;8.21;57.09
85928;BME280;76685;49.582;18.342;2024-03-06T12:41:52;97407.05;;;7.88;57.53
85928;BME280;76685;49.582;18.342;2024-03-06T12:44:19;97407.81;;;7.61;58.86
85928;BME280;76685;49.582;18.342;2024-03-06T12:46:45;97410.46;;;7.44;58.93
85928;BME280;76685;49.582;18.342;2024-03-06T12:49:11;97416.30;;;7.29;59.31
85928;BME280;76685;49.582;18.342;2024-03-06T12:51:38;97416.91;;;7.13;60.47
85928;BME280;76685;49.582;18.342;2024-03-06T12:54:04;97413.77;;;7.06;60.73
85928;BME280;76685;49.582;18.342;2024-03-06T12:56:30;97416.80;;;6.90;60.28
85928;BME280;76685;49.582;18.342;2024-03-06T12:58:56;97416.75;;;6.78;60.82
85928;BME280;76685;49.582;18.342;2024-03-06T13:01:22;97419.13;;;6.74;61.20
85928;BME280;76685;49.582;18.342;2024-03-06T13:03:48;97415.27;;;6.84;61.30
85928;BME280;76685;49.582;18.342;2024-03-06T13:06:15;97415.27;;;6.93;61.17
85928;BME280;76685;49.582;18.342;2024-03-06T13:08:41;97416.40;;;6.94;60.71
85928;BME280;76685;49.582;18.342;2024-03-06T13:11:07;97413.73;;;6.99;61.47